createdAt,value
2023-03-10T00:00:54.268Z,58.82
2023-03-10T00:03:22.370Z,58.57
2023-03-10T00:05:50.561Z,58.96
2023-03-10T00:08:18.811Z,58.65
2023-03-10T00:10:48.160Z,58.60
2023-03-10T00:13:16.503Z,57.98
2023-03-10T00:15:46.204Z,57.54
2023-03-10T00:18:14.415Z,57.54
2023-03-10T00:20:42.633Z,57.57
2023-03-10T00:23:10.886Z,57.92
2023-03-10T00:25:39.856Z,58.61
2023-03-10T00:28:10.309Z,58.23
2023-03-10T00:30:38.491Z,58.62
2023-03-10T00:33:10.560Z,58.03
2023-03-10T00:35:38.704Z,58.69
2023-03-10T00:38:06.939Z,57.97
2023-03-10T00:40:35.148Z,58.01
2023-03-10T00:43:03.264Z,58.32
2023-03-10T00:45:32.719Z,58.64
2023-03-10T00:48:01.776Z,57.60
2023-03-10T00:50:31.314Z,57.84
2023-03-10T00:52:59.535Z,57.65
2023-03-10T00:55:27.660Z,58.28
2023-03-10T00:57:55.939Z,58.41
2023-03-10T01:00:24.872Z,58.59
2023-03-10T01:02:53.106Z,58.64
2023-03-10T01:05:21.318Z,58.94
2023-03-10T01:07:50.974Z,58.70
2023-03-10T01:10:19.574Z,59.06
2023-03-10T01:12:47.864Z,58.46
2023-03-10T01:15:16.458Z,58.53
2023-03-10T01:17:44.576Z,57.79
2023-03-10T01:20:15.389Z,58.72
2023-03-10T01:22:43.809Z,58.98
2023-03-10T01:25:15.673Z,59.96
2023-03-10T01:27:44.368Z,60.54
2023-03-10T01:30:13.106Z,60.68
2023-03-10T01:32:41.448Z,60.47
2023-03-10T01:35:10.422Z,60.99
2023-03-10T01:37:38.620Z,61.21
2023-03-10T01:40:08.793Z,61.03
2023-03-10T01:42:38.403Z,61.47
2023-03-10T01:45:08.325Z,61.74
2023-03-10T01:47:36.490Z,61.46
2023-03-10T01:50:07.622Z,61.42
2023-03-10T01:52:36.339Z,60.94
2023-03-10T01:55:08.075Z,61.03
2023-03-10T01:57:37.650Z,60.59
2023-03-10T02:00:12.310Z,60.49
2023-03-10T02:02:49.327Z,60.98
2023-03-10T02:05:18.186Z,60.41
2023-03-10T02:07:46.650Z,60.41
2023-03-10T02:10:15.606Z,60.41
2023-03-10T02:12:43.918Z,60.80
2023-03-10T02:15:14.082Z,60.90
2023-03-10T02:17:42.639Z,60.85
2023-03-10T02:20:20.460Z,60.06
2023-03-10T02:22:49.324Z,59.94
2023-03-10T02:25:24.201Z,59.16
2023-03-10T02:27:55.218Z,59.83
2023-03-10T02:30:25.443Z,58.85
2023-03-10T02:32:55.862Z,59.19
2023-03-10T02:35:24.885Z,59.02
2023-03-10T02:38:01.165Z,59.43
2023-03-10T02:40:34.995Z,58.83
2023-03-10T02:43:17.705Z,58.35
2023-03-10T02:45:47.896Z,58.47
2023-03-10T02:48:20.321Z,58.76
2023-03-10T02:50:48.787Z,58.50
2023-03-10T02:53:18.072Z,57.96
2023-03-10T02:55:46.813Z,58.33
2023-03-10T02:58:16.894Z,58.37
2023-03-10T03:00:46.018Z,58.07
2023-03-10T03:03:15.994Z,57.96
2023-03-10T03:05:44.596Z,57.50
2023-03-10T03:08:12.862Z,57.90
2023-03-10T03:10:41.596Z,57.26
2023-03-10T03:13:11.267Z,57.79
2023-03-10T03:15:41.779Z,57.08
2023-03-10T03:18:10.841Z,57.58
2023-03-10T03:20:40.952Z,57.38
2023-03-10T03:23:09.955Z,57.16
2023-03-10T03:25:39.932Z,56.42
2023-03-10T03:28:10.200Z,56.99
2023-03-10T03:30:39.657Z,56.96
2023-03-10T03:33:09.575Z,56.51
2023-03-10T03:35:40.552Z,57.16
2023-03-10T03:38:09.484Z,56.95
2023-03-10T03:40:40.015Z,56.61
2023-03-10T03:43:11.195Z,56.61
2023-03-10T03:45:39.561Z,57.14
2023-03-10T03:48:09.167Z,56.75
2023-03-10T03:50:37.746Z,56.33
2023-03-10T03:53:14.112Z,56.66
2023-03-10T03:55:42.980Z,56.69
2023-03-10T03:58:11.634Z,56.19
2023-03-10T04:00:40.871Z,56.67
2023-03-10T04:03:12.678Z,56.63
2023-03-10T04:05:41.416Z,56.03
2023-03-10T04:08:09.985Z,56.39
2023-03-10T04:10:38.198Z,57.36
2023-03-10T04:13:06.328Z,56.85
2023-03-10T04:15:34.753Z,57.19
2023-03-10T04:18:02.988Z,56.76
2023-03-10T04:20:32.888Z,55.91
2023-03-10T04:23:02.941Z,55.85
2023-03-10T04:25:36.465Z,55.84
2023-03-10T04:28:05.631Z,55.87
2023-03-10T04:30:33.936Z,56.55
2023-03-10T04:33:03.386Z,56.27
2023-03-10T04:35:35.600Z,56.74
2023-03-10T04:38:04.208Z,56.59
2023-03-10T04:40:33.312Z,56.12
2023-03-10T04:43:01.957Z,55.68
2023-03-10T04:45:31.279Z,56.17
2023-03-10T04:47:59.544Z,56.30
2023-03-10T04:50:27.736Z,57.00
2023-03-10T04:52:58.577Z,56.28
2023-03-10T04:55:30.631Z,55.07
2023-03-10T04:57:59.616Z,55.60
2023-03-10T05:00:28.202Z,56.04
2023-03-10T05:02:56.881Z,56.46
2023-03-10T05:05:25.130Z,56.06
2023-03-10T05:07:53.411Z,55.70
2023-03-10T05:10:23.030Z,55.97
2023-03-10T05:12:51.328Z,56.63
2023-03-10T05:15:19.657Z,55.76
2023-03-10T05:17:50.103Z,55.37
2023-03-10T05:20:19.450Z,54.91
2023-03-10T05:22:47.540Z,54.74
2023-03-10T05:25:16.427Z,54.53
2023-03-10T05:27:45.989Z,55.17
2023-03-10T05:30:16.088Z,54.54
2023-03-10T05:32:47.386Z,54.21
2023-03-10T05:35:15.701Z,53.84
2023-03-10T05:37:46.170Z,54.57
2023-03-10T05:40:15.153Z,55.10
2023-03-10T05:42:43.398Z,55.58
2023-03-10T05:45:13.545Z,55.26
2023-03-10T05:47:41.707Z,55.16
2023-03-10T05:50:10.643Z,54.74
2023-03-10T05:52:39.542Z,53.30
2023-03-10T05:55:08.661Z,53.24
2023-03-10T05:57:37.111Z,53.71
2023-03-10T06:00:06.302Z,54.67
2023-03-10T06:02:43.129Z,53.31
2023-03-10T06:05:12.739Z,52.64
2023-03-10T06:07:41.046Z,51.41
2023-03-10T06:10:10.086Z,52.18
2023-03-10T06:12:38.354Z,53.46
2023-03-10T06:15:07.149Z,51.76
2023-03-10T06:17:35.356Z,52.21
2023-03-10T06:20:05.386Z,52.77
2023-03-10T06:22:33.615Z,53.29
2023-03-10T06:25:04.637Z,53.06
2023-03-10T06:27:33.224Z,54.12
2023-03-10T06:30:01.593Z,53.67
2023-03-10T06:32:31.091Z,53.42
2023-03-10T06:35:00.229Z,53.25
2023-03-10T06:37:30.077Z,51.90
2023-03-10T06:39:58.354Z,51.43
2023-03-10T06:42:26.485Z,51.57
2023-03-10T06:44:55.416Z,51.36
2023-03-10T06:47:23.663Z,52.34
2023-03-10T06:49:54.014Z,52.03
2023-03-10T06:52:22.360Z,49.97
2023-03-10T06:54:51.891Z,49.46
2023-03-10T06:57:21.104Z,51.63
2023-03-10T06:59:49.269Z,52.23
2023-03-10T07:02:19.891Z,52.18
2023-03-10T07:04:48.206Z,51.61
2023-03-10T07:07:16.476Z,51.96
2023-03-10T07:09:46.291Z,52.80
2023-03-10T07:12:15.845Z,50.64
2023-03-10T07:14:43.921Z,50.13
2023-03-10T07:17:12.110Z,49.63
2023-03-10T07:19:40.258Z,49.54
2023-03-10T07:22:11.033Z,51.02
2023-03-10T07:24:39.742Z,51.03
2023-03-10T07:27:08.024Z,49.60
2023-03-10T07:29:37.617Z,52.59
2023-03-10T07:32:06.133Z,51.03
2023-03-10T07:34:34.334Z,50.85
2023-03-10T07:37:02.825Z,49.95
2023-03-10T07:39:31.022Z,50.37
2023-03-10T07:42:00.142Z,50.63
2023-03-10T07:44:28.426Z,50.37
2023-03-10T07:46:57.982Z,48.68
2023-03-10T07:49:26.256Z,49.11
2023-03-10T07:51:54.404Z,51.22
2023-03-10T07:54:22.754Z,49.33
2023-03-10T07:56:51.254Z,48.89
2023-03-10T07:59:19.480Z,48.55
2023-03-10T08:01:47.785Z,46.49
2023-03-10T08:04:17.735Z,47.63
2023-03-10T08:06:46.220Z,50.04
2023-03-10T08:09:14.413Z,48.72
2023-03-10T08:11:42.726Z,47.94
2023-03-10T08:14:11.071Z,47.35
2023-03-10T08:16:40.526Z,44.78
2023-03-10T08:19:08.838Z,44.01
2023-03-10T08:21:38.865Z,45.86
2023-03-10T08:24:07.317Z,45.81
2023-03-10T08:26:35.640Z,46.65
2023-03-10T08:29:05.219Z,47.23
2023-03-10T08:31:33.583Z,47.03
2023-03-10T08:34:01.769Z,47.81
2023-03-10T08:36:31.307Z,46.20
2023-03-10T08:39:02.409Z,46.82
2023-03-10T08:41:31.999Z,43.62
2023-03-10T08:44:00.631Z,43.77
2023-03-10T08:46:30.467Z,44.31
2023-03-10T08:48:58.800Z,44.87
2023-03-10T08:51:27.061Z,45.84
2023-03-10T08:53:55.668Z,45.59
2023-03-10T08:56:25.881Z,47.05
2023-03-10T08:58:58.070Z,46.30
2023-03-10T09:01:27.636Z,45.90
2023-03-10T09:03:55.978Z,46.50
2023-03-10T09:06:24.299Z,46.08
2023-03-10T09:08:52.531Z,45.79
2023-03-10T09:11:21.949Z,46.43
2023-03-10T09:13:51.505Z,46.47
2023-03-10T09:16:19.755Z,45.92
2023-03-10T09:18:48.901Z,45.23
2023-03-10T09:21:17.855Z,44.29
2023-03-10T09:23:48.101Z,44.23
2023-03-10T09:26:16.668Z,44.17
2023-03-10T09:28:44.910Z,44.82
2023-03-10T09:31:17.554Z,45.39
2023-03-10T09:33:48.184Z,42.92
2023-03-10T09:36:16.854Z,44.57
2023-03-10T09:38:45.247Z,44.68
2023-03-10T09:41:27.448Z,44.35
2023-03-10T09:43:57.458Z,45.36
2023-03-10T09:46:28.546Z,44.63
2023-03-10T09:49:02.065Z,43.03
2023-03-10T09:51:30.701Z,44.53
2023-03-10T09:54:03.281Z,45.24
2023-03-10T09:56:32.778Z,44.11
2023-03-10T09:59:05.569Z,43.65
2023-03-10T10:01:35.875Z,44.76
2023-03-10T10:04:07.826Z,44.75
2023-03-10T10:06:38.070Z,44.84
2023-03-10T10:09:09.566Z,44.15
2023-03-10T10:11:41.207Z,43.81
2023-03-10T10:14:27.853Z,43.75
2023-03-10T10:17:03.033Z,44.52
2023-03-10T10:19:36.686Z,44.52
2023-03-10T10:22:09.763Z,45.38
2023-03-10T10:24:38.729Z,44.43
2023-03-10T10:27:06.847Z,43.59
2023-03-10T10:29:36.645Z,43.72
2023-03-10T10:32:10.888Z,44.35
2023-03-10T10:34:39.754Z,42.76
2023-03-10T10:37:22.680Z,43.69
2023-03-10T10:39:52.379Z,42.36
2023-03-10T10:42:24.349Z,42.38
2023-03-10T10:44:53.651Z,43.34
2023-03-10T10:47:31.247Z,43.23
2023-03-10T10:50:20.457Z,43.17
2023-03-10T10:52:50.739Z,43.75
2023-03-10T10:55:26.417Z,43.08
2023-03-10T10:57:56.230Z,44.04
2023-03-10T11:00:27.475Z,43.35
2023-03-10T11:02:57.382Z,44.11
2023-03-10T11:05:26.925Z,44.35
2023-03-10T11:07:55.019Z,45.22
2023-03-10T11:10:28.354Z,44.38
2023-03-10T11:13:01.038Z,43.99
2023-03-10T11:15:32.053Z,45.12
2023-03-10T11:18:07.428Z,44.33
2023-03-10T11:20:42.196Z,44.10
2023-03-10T11:23:16.338Z,45.05
2023-03-10T11:25:48.470Z,44.27
2023-03-10T11:28:43.514Z,43.86
2023-03-10T11:31:18.958Z,43.71
2023-03-10T11:33:51.785Z,43.95
2023-03-10T11:36:27.709Z,43.70
2023-03-10T11:39:00.806Z,44.12
2023-03-10T11:41:32.334Z,45.03
2023-03-10T11:44:03.420Z,43.69
2023-03-10T11:46:34.852Z,43.47
2023-03-10T11:49:09.217Z,43.39
2023-03-10T11:51:40.069Z,44.39
2023-03-10T11:54:13.963Z,44.04
2023-03-10T11:56:42.932Z,45.13
2023-03-10T11:59:13.827Z,44.92
2023-03-10T12:01:45.481Z,44.05
2023-03-10T12:04:18.008Z,46.10
2023-03-10T12:06:50.306Z,45.81
2023-03-10T12:09:23.236Z,45.59
2023-03-10T12:11:53.115Z,44.40
2023-03-10T12:14:21.503Z,44.40
2023-03-10T12:16:50.357Z,45.82
2023-03-10T12:19:20.093Z,45.85
2023-03-10T12:22:08.583Z,45.22
2023-03-10T12:24:44.159Z,45.64
2023-03-10T12:27:12.326Z,43.89
2023-03-10T12:29:41.780Z,43.71
2023-03-10T12:32:28.582Z,43.26
2023-03-10T12:35:16.116Z,43.85
2023-03-10T12:37:45.888Z,42.86
2023-03-10T12:40:28.746Z,44.79
2023-03-10T12:42:56.968Z,45.32
2023-03-10T12:45:28.812Z,44.86
2023-03-10T12:48:01.602Z,45.50
2023-03-10T12:50:36.419Z,44.68
2023-03-10T12:53:08.888Z,44.89
2023-03-10T12:55:37.183Z,44.32
2023-03-10T12:58:10.105Z,44.30
2023-03-10T13:00:47.323Z,43.49
2023-03-10T13:03:27.509Z,42.32
2023-03-10T13:06:00.851Z,41.59
2023-03-10T13:08:34.774Z,42.06
2023-03-10T13:11:03.446Z,42.46
2023-03-10T13:13:34.289Z,44.37
2023-03-10T13:16:03.609Z,46.14
2023-03-10T13:18:32.099Z,45.54
2023-03-10T13:21:01.844Z,46.18
2023-03-10T13:23:32.636Z,44.62
2023-03-10T13:26:02.944Z,44.25
2023-03-10T13:28:32.195Z,44.90
2023-03-10T13:31:11.285Z,44.02
2023-03-10T13:33:52.211Z,43.65
2023-03-10T13:36:22.652Z,43.84
2023-03-10T13:38:53.208Z,44.00
2023-03-10T13:41:22.890Z,44.34
2023-03-10T13:43:53.126Z,43.95
2023-03-10T13:46:24.175Z,43.90
2023-03-10T13:48:53.154Z,44.09
2023-03-10T13:51:22.748Z,43.24
2023-03-10T13:53:52.824Z,43.64
2023-03-10T13:56:24.624Z,43.03
2023-03-10T13:58:53.842Z,43.69
2023-03-10T14:01:23.872Z,43.42
2023-03-10T14:03:53.645Z,43.39
2023-03-10T14:06:23.084Z,42.64
2023-03-10T14:08:51.768Z,42.27
2023-03-10T14:11:32.846Z,42.17
2023-03-10T14:14:01.600Z,41.48
2023-03-10T14:16:49.348Z,40.40
2023-03-10T14:19:32.284Z,42.35
2023-03-10T14:22:02.363Z,41.93
2023-03-10T14:24:30.748Z,42.41
2023-03-10T14:27:01.981Z,42.21
2023-03-10T14:29:30.875Z,41.56
2023-03-10T14:31:58.997Z,41.06
2023-03-10T14:34:27.162Z,39.77
2023-03-10T14:36:55.186Z,41.33
2023-03-10T14:39:23.354Z,42.86
2023-03-10T14:41:52.277Z,42.49
2023-03-10T14:44:21.874Z,43.17
2023-03-10T14:46:53.273Z,42.35
2023-03-10T14:49:23.954Z,41.50
2023-03-10T14:51:52.314Z,41.04
2023-03-10T14:54:21.350Z,42.49
2023-03-10T14:56:52.552Z,43.58
2023-03-10T14:59:22.108Z,43.97
2023-03-10T15:01:50.392Z,42.77
2023-03-10T15:04:18.889Z,42.71
2023-03-10T15:06:47.106Z,42.82
2023-03-10T15:09:15.611Z,42.84
2023-03-10T15:11:44.134Z,42.54
2023-03-10T15:14:14.530Z,41.77
2023-03-10T15:16:44.102Z,42.11
2023-03-10T15:19:18.032Z,41.79
2023-03-10T15:21:46.205Z,42.40
2023-03-10T15:24:14.316Z,41.70
2023-03-10T15:26:42.486Z,41.68
2023-03-10T15:29:13.793Z,42.12
2023-03-10T15:31:43.520Z,42.39
2023-03-10T15:34:11.770Z,43.54
2023-03-10T15:36:39.991Z,43.19
2023-03-10T15:39:09.855Z,43.52
2023-03-10T15:41:40.345Z,43.73
2023-03-10T15:44:08.704Z,43.76
2023-03-10T15:46:37.064Z,43.83
2023-03-10T15:49:07.831Z,44.39
2023-03-10T15:51:36.038Z,44.07
2023-03-10T15:54:04.465Z,43.93
2023-03-10T15:56:32.797Z,44.07
2023-03-10T15:59:01.119Z,44.07
2023-03-10T16:01:29.372Z,43.69
2023-03-10T16:03:57.591Z,43.14
2023-03-10T16:06:27.846Z,43.67
2023-03-10T16:08:56.461Z,43.78
2023-03-10T16:11:24.894Z,43.66
2023-03-10T16:13:53.078Z,43.75
2023-03-10T16:16:23.574Z,43.87
2023-03-10T16:18:52.561Z,43.76
2023-03-10T16:21:21.248Z,44.39
2023-03-10T16:23:51.181Z,43.70
2023-03-10T16:26:20.316Z,44.43
2023-03-10T16:28:50.594Z,44.10
2023-03-10T16:31:27.438Z,44.40
2023-03-10T16:33:58.238Z,44.17
2023-03-10T16:36:29.439Z,43.82
2023-03-10T16:38:59.028Z,43.74
2023-03-10T16:41:29.726Z,44.16
2023-03-10T16:43:58.348Z,43.63
2023-03-10T16:46:30.217Z,43.71
2023-03-10T16:48:58.952Z,44.43
2023-03-10T16:51:28.651Z,43.46
2023-03-10T16:54:01.070Z,44.01
2023-03-10T16:56:30.542Z,43.92
2023-03-10T16:58:59.862Z,43.76
2023-03-10T17:01:28.390Z,43.58
2023-03-10T17:03:56.776Z,43.88
2023-03-10T17:06:26.120Z,44.12
2023-03-10T17:08:54.928Z,43.56
2023-03-10T17:11:25.430Z,44.02
2023-03-10T17:13:54.405Z,43.61
2023-03-10T17:16:23.637Z,44.41
2023-03-10T17:18:52.175Z,43.74
2023-03-10T17:21:21.220Z,44.82
2023-03-10T17:23:50.041Z,44.71
2023-03-10T17:26:18.652Z,45.24
2023-03-10T17:28:49.497Z,44.60
2023-03-10T17:31:20.720Z,44.45
2023-03-10T17:33:48.988Z,44.39
2023-03-10T17:36:17.777Z,44.69
2023-03-10T17:38:46.260Z,45.11
2023-03-10T17:41:15.441Z,44.36
2023-03-10T17:43:43.981Z,44.54
2023-03-10T17:46:15.077Z,44.30
2023-03-10T17:48:43.505Z,44.14
2023-03-10T17:51:15.340Z,43.96
2023-03-10T17:53:43.636Z,43.78
2023-03-10T17:56:12.209Z,44.16
2023-03-10T17:58:40.775Z,43.78
2023-03-10T18:01:10.372Z,44.20
2023-03-10T18:03:40.032Z,44.06
2023-03-10T18:06:13.754Z,43.62
2023-03-10T18:08:42.333Z,43.76
2023-03-10T18:11:11.527Z,44.02
2023-03-10T18:13:40.057Z,43.90
2023-03-10T18:16:09.546Z,43.82
2023-03-10T18:18:40.249Z,43.82
2023-03-10T18:21:10.179Z,43.44
2023-03-10T18:23:38.911Z,43.90
2023-03-10T18:26:08.195Z,43.54
2023-03-10T18:28:37.038Z,43.81
2023-03-10T18:31:08.386Z,44.06
2023-03-10T18:33:37.804Z,44.34
2023-03-10T18:36:08.278Z,44.18
2023-03-10T18:38:37.369Z,44.66
2023-03-10T18:41:06.553Z,44.88
2023-03-10T18:43:35.773Z,45.27
2023-03-10T18:46:05.436Z,45.38
2023-03-10T18:48:34.736Z,44.91
2023-03-10T18:51:03.798Z,44.84
2023-03-10T18:53:34.278Z,44.45
2023-03-10T18:56:03.547Z,44.57
2023-03-10T18:58:33.581Z,44.78
2023-03-10T19:01:02.928Z,44.76
2023-03-10T19:03:32.677Z,44.55
2023-03-10T19:06:02.169Z,44.59
2023-03-10T19:08:31.525Z,44.18
2023-03-10T19:11:02.176Z,44.38
2023-03-10T19:13:31.504Z,44.44
2023-03-10T19:16:00.691Z,44.60
2023-03-10T19:18:29.763Z,44.52
2023-03-10T19:21:00.848Z,45.33
2023-03-10T19:23:30.121Z,45.90
2023-03-10T19:26:00.932Z,46.25
2023-03-10T19:28:31.764Z,45.20
2023-03-10T19:31:00.741Z,45.37
2023-03-10T19:33:29.167Z,45.43
2023-03-10T19:36:03.644Z,45.11
2023-03-10T19:38:31.954Z,45.12
2023-03-10T19:41:00.817Z,46.25
2023-03-10T19:43:30.644Z,46.11
2023-03-10T19:46:02.291Z,45.66
2023-03-10T19:48:30.834Z,45.74
2023-03-10T19:50:59.652Z,45.49
2023-03-10T19:53:28.935Z,45.92
2023-03-10T19:55:57.749Z,46.47
2023-03-10T19:58:26.028Z,45.73
2023-03-10T20:00:57.897Z,45.34
2023-03-10T20:03:27.514Z,45.67
2023-03-10T20:05:56.291Z,45.60
2023-03-10T20:08:29.203Z,45.32
2023-03-10T20:11:02.178Z,45.04
2023-03-10T20:13:30.448Z,45.36
2023-03-10T20:16:00.237Z,44.64
2023-03-10T20:18:28.455Z,44.61
2023-03-10T20:20:56.549Z,44.56
2023-03-10T20:23:24.726Z,44.76
2023-03-10T20:26:01.092Z,45.08
2023-03-10T20:28:29.406Z,45.08
2023-03-10T20:30:57.515Z,45.00
2023-03-10T20:33:27.458Z,44.17
2023-03-10T20:35:55.881Z,44.68
2023-03-10T20:38:24.229Z,44.92
2023-03-10T20:40:52.350Z,44.93
2023-03-10T20:43:20.435Z,44.97
2023-03-10T20:45:51.618Z,45.27
2023-03-10T20:48:19.812Z,44.57
2023-03-10T20:50:54.093Z,44.87
2023-03-10T20:53:22.430Z,45.04
2023-03-10T20:55:53.106Z,45.76
2023-03-10T20:58:21.275Z,45.25
2023-03-10T21:00:49.699Z,45.02
2023-03-10T21:03:18.031Z,45.08
2023-03-10T21:05:46.155Z,44.96
2023-03-10T21:08:15.768Z,44.21
2023-03-10T21:10:44.874Z,44.69
2023-03-10T21:13:13.350Z,44.71
2023-03-10T21:15:41.581Z,45.30
2023-03-10T21:18:09.869Z,45.08
2023-03-10T21:20:37.903Z,45.56
2023-03-10T21:23:06.089Z,45.00
2023-03-10T21:25:35.580Z,45.13
2023-03-10T21:28:03.813Z,45.10
2023-03-10T21:30:33.785Z,45.06
2023-03-10T21:33:02.673Z,46.59
2023-03-10T21:35:34.344Z,46.58
2023-03-10T21:38:02.696Z,46.79
2023-03-10T21:40:30.795Z,46.70
2023-03-10T21:43:02.633Z,47.14
2023-03-10T21:45:33.484Z,47.50
2023-03-10T21:48:03.229Z,47.66
2023-03-10T21:50:31.644Z,47.46
2023-03-10T21:52:59.830Z,47.82
2023-03-10T21:55:29.519Z,48.69
2023-03-10T21:57:57.926Z,49.04
2023-03-10T22:00:27.596Z,47.55
2023-03-10T22:02:55.714Z,47.71
2023-03-10T22:05:24.388Z,47.68
2023-03-10T22:07:53.463Z,48.03
2023-03-10T22:10:21.630Z,47.03
2023-03-10T22:12:50.153Z,46.91
2023-03-10T22:15:19.315Z,46.57
2023-03-10T22:17:49.091Z,46.02
2023-03-10T22:20:18.569Z,46.00
2023-03-10T22:22:46.941Z,46.12
2023-03-10T22:25:15.836Z,45.46
2023-03-10T22:27:44.890Z,45.52
2023-03-10T22:30:14.556Z,46.43
2023-03-10T22:32:43.481Z,46.66
2023-03-10T22:35:13.204Z,46.96
2023-03-10T22:37:41.666Z,46.40
2023-03-10T22:40:11.242Z,46.44
2023-03-10T22:42:41.240Z,46.69
2023-03-10T22:45:15.898Z,46.31
2023-03-10T22:47:44.077Z,46.47
2023-03-10T22:50:14.307Z,46.69
2023-03-10T22:52:42.435Z,46.51
2023-03-10T22:55:13.458Z,45.93
2023-03-10T22:57:45.050Z,45.76
2023-03-10T23:00:14.903Z,46.62
2023-03-10T23:02:43.151Z,47.43
2023-03-10T23:05:11.573Z,47.32
2023-03-10T23:07:41.334Z,47.29
2023-03-10T23:10:11.419Z,47.56
2023-03-10T23:12:41.124Z,48.29
2023-03-10T23:15:15.347Z,47.65
2023-03-10T23:17:51.008Z,47.75
2023-03-10T23:20:19.427Z,48.08
2023-03-10T23:22:49.011Z,48.03
2023-03-10T23:25:18.308Z,47.97
2023-03-10T23:27:46.462Z,47.78
2023-03-10T23:30:15.852Z,48.86
2023-03-10T23:32:44.299Z,49.16
2023-03-10T23:35:13.011Z,48.15
2023-03-10T23:37:41.114Z,46.85
2023-03-10T23:40:13.754Z,48.05
2023-03-10T23:42:42.687Z,48.34
2023-03-10T23:45:12.119Z,48.04
2023-03-10T23:47:40.822Z,47.48
2023-03-10T23:50:10.429Z,48.23
2023-03-10T23:52:38.560Z,47.84
2023-03-10T23:55:07.693Z,47.59
2023-03-10T23:57:37.351Z,47.60
